Ansted, West Virginia
Current Conditions -  °F | °C
As of 9:18 AM on Wednesday 28 Jan 2015 (Local Time) from KBKW Reporting Station
Light Snow Light Snow  
Wind Chill:   Ceiling: 900
Heat Index: 17°   Visibility: 3mi
Dew Point: 12°   Wind: 8mph
Humidity: 81%   Direction: 350°N
Pressure: 30.23"   Gusts: NA
Location:  38.14°N, 81.1°W
Report Text: KBKW 281418Z AUTO 35007KT 3SM -SN OVC009 M08/M11 A3023 RMK AO2 P0000 T10831111
Loading
Personal Weather Stations






























Interactive Weather Map New forecast layout! Learn more

10-Day Weather Forecast

Advertisements
Track Severe Weather on mobile